.
WxDataArchive / Data Records for 2014-10-23
2014-10-22 October 2014 2014-10-24

Data Records for Thursday, 23 October 2014

Time	Temp	Chill	HIndex	Humid	Dewpt	 Wind 	HiWind	WindDir	Rain 	Barom
-----	----	-----	------	-----	-----	------	------	-------	-----	-----
00:00	35.2	35.2	35.2	92	33.1	0	0	---	0.00	30.288 
00:05	35.0	35.0	35.0	92	32.9	0	0	---	0.00	30.288 
00:10	34.9	34.9	34.9	92	32.8	0	0	---	0.00	30.288 
00:15	34.7	34.7	34.7	92	32.6	0	0	---	0.00	30.286 
00:20	34.7	34.7	34.7	92	32.6	0	0	---	0.00	30.286 
00:25	34.6	34.6	34.6	92	32.5	0	0	---	0.00	30.286 
00:30	34.6	34.6	34.6	92	32.5	0	0	---	0.00	30.287 
00:35	34.6	34.6	34.6	92	32.5	0	0	---	0.00	30.287 
00:40	34.4	34.4	34.4	92	32.3	0	0	---	0.00	30.287 
00:45	34.4	34.4	34.4	92	32.3	0	0	---	0.00	30.289 
00:50	34.3	34.3	34.3	92	32.2	0	0	---	0.00	30.289 
00:55	34.1	34.1	34.1	92	32.0	0	0	---	0.00	30.289 
01:00	34.0	34.0	34.0	92	31.9	0	0	---	0.00	30.289 
01:05	33.8	33.8	33.8	92	31.7	0	0	---	0.00	30.289 
01:10	33.7	33.7	33.7	92	31.6	0	0	---	0.00	30.289 
01:15	33.7	33.7	33.7	92	31.6	0	0	---	0.00	30.290 
01:20	33.5	33.5	33.5	92	31.4	0	0	---	0.00	30.290 
01:25	33.4	33.4	33.4	92	31.3	0	0	---	0.00	30.290 
01:30	33.4	33.4	33.4	92	31.3	0	0	---	0.00	30.290 
01:35	33.4	33.4	33.4	93	31.6	0	0	---	0.00	30.290 
01:40	33.4	33.4	33.4	93	31.6	0	0	---	0.00	30.290 
01:45	33.4	33.4	33.4	93	31.6	0	0	---	0.00	30.282 
01:50	33.4	33.4	33.4	93	31.6	0	0	---	0.00	30.282 
01:55	33.2	33.2	33.2	93	31.4	0	0	---	0.00	30.282 
02:00	33.2	33.2	33.2	93	31.4	0	0	---	0.00	30.277 
02:05	33.1	33.1	33.1	93	31.3	0	0	---	0.00	30.277 
02:10	33.1	33.1	33.1	93	31.3	0	0	---	0.00	30.277 
02:15	32.9	32.9	32.9	93	31.1	0	0	---	0.00	30.275 
02:20	32.9	32.9	32.9	93	31.1	0	0	---	0.00	30.275 
02:25	32.9	32.9	32.9	93	31.1	0	0	---	0.00	30.275 
02:30	32.9	32.9	32.9	93	31.1	0	0	---	0.00	30.276 
02:35	32.9	32.9	32.9	93	31.1	0	0	---	0.00	30.276 
02:40	32.9	32.9	32.9	93	31.1	0	0	---	0.00	30.276 
02:45	32.8	32.8	32.8	93	31.0	0	0	---	0.00	30.276 
02:50	32.8	32.8	32.8	93	31.0	0	0	---	0.00	30.276 
02:55	32.7	32.7	32.7	93	30.9	0	0	---	0.00	30.276 
03:00	32.7	32.7	32.7	93	30.9	0	0	---	0.00	30.276 
03:05	32.8	32.8	32.8	93	31.0	0	0	---	0.00	30.276 
03:10	32.7	32.7	32.7	93	30.9	0	0	---	0.00	30.276 
03:15	32.8	32.8	32.8	93	31.0	0	0	---	0.00	30.279 
03:20	32.8	32.8	32.8	93	31.0	0	0	---	0.00	30.279 
03:25	32.8	32.8	32.8	93	31.0	0	0	---	0.00	30.279 
03:30	32.7	32.7	32.7	93	30.9	0	0	---	0.00	30.272 
03:35	32.5	32.5	32.5	93	30.7	0	0	---	0.00	30.272 
03:40	32.5	32.5	32.5	93	30.7	0	0	---	0.00	30.272 
03:45	32.4	32.4	32.4	93	30.6	0	0	---	0.00	30.276 
03:50	32.4	32.4	32.4	93	30.6	0	0	---	0.00	30.276 
03:55	32.2	32.2	32.2	93	30.4	0	0	---	0.00	30.276 
04:00	32.1	32.1	32.1	93	30.3	0	0	---	0.00	30.271 
04:05	32.1	32.1	32.1	93	30.3	0	0	---	0.00	30.271 
04:10	32.1	32.1	32.1	93	30.3	0	0	---	0.00	30.271 
04:15	32.1	32.1	32.1	93	30.3	0	0	---	0.00	30.263 
04:20	32.1	32.1	32.1	94	30.6	0	0	---	0.00	30.263 
04:25	32.1	32.1	32.1	93	30.3	0	0	---	0.00	30.263 
04:30	31.9	31.9	31.9	93	30.1	0	0	---	0.00	30.258 
04:35	31.8	31.8	31.8	93	30.0	0	0	---	0.00	30.258 
04:40	31.8	31.8	31.8	93	30.0	0	0	---	0.00	30.258 
04:45	31.6	31.6	31.6	93	29.8	0	0	---	0.00	30.257 
04:50	31.5	31.5	31.5	93	29.7	0	0	---	0.00	30.257 
04:55	31.5	31.5	31.5	93	29.7	0	0	---	0.00	30.257 
05:00	31.3	31.3	31.3	93	29.5	0	0	---	0.00	30.254 
05:05	31.3	31.3	31.3	93	29.5	0	0	---	0.00	30.254 
05:10	31.2	31.2	31.2	93	29.4	0	0	---	0.00	30.254 
05:15	31.0	31.0	31.0	93	29.2	0	0	---	0.00	30.252 
05:20	31.0	31.0	31.0	93	29.2	0	0	---	0.00	30.252 
05:25	30.9	30.9	30.9	93	29.1	0	0	---	0.00	30.252 
05:30	30.9	30.9	30.9	94	29.4	0	0	---	0.00	30.258 
05:35	30.9	30.9	30.9	94	29.4	0	0	---	0.00	30.258 
05:40	31.0	31.0	31.0	94	29.5	0	0	---	0.00	30.258 
05:45	31.0	31.0	31.0	94	29.5	0	0	---	0.00	30.261 
05:50	31.0	31.0	31.0	94	29.5	0	0	---	0.00	30.261 
05:55	30.9	30.9	30.9	94	29.4	0	0	---	0.00	30.261 
06:00	30.9	30.9	30.9	94	29.4	0	0	---	0.00	30.261 
06:05	30.7	30.7	30.7	94	29.2	0	0	---	0.00	30.261 
06:10	30.7	30.7	30.7	94	29.2	0	0	---	0.00	30.261 
06:15	30.7	30.7	30.7	94	29.2	0	0	---	0.00	30.264 
06:20	30.6	30.6	30.6	94	29.1	0	0	---	0.00	30.264 
06:25	30.6	30.6	30.6	94	29.1	0	0	---	0.00	30.264 
06:30	30.7	30.7	30.7	94	29.2	0	0	---	0.00	30.264 
06:35	30.7	30.7	30.7	94	29.2	0	0	---	0.00	30.264 
06:40	30.7	30.7	30.7	94	29.2	0	0	---	0.00	30.264 
06:45	30.7	30.7	30.7	94	29.2	0	0	---	0.00	30.266 
06:50	30.7	30.7	30.7	94	29.2	0	0	---	0.00	30.266 
06:55	30.7	30.7	30.7	94	29.2	0	0	---	0.00	30.266 
07:00	30.7	30.7	30.7	94	29.2	0	0	---	0.00	30.269 
07:05	30.7	30.7	30.7	94	29.2	0	0	---	0.00	30.269 
07:10	30.7	30.7	30.7	94	29.2	0	0	---	0.00	30.269 
07:15	30.6	30.6	30.6	94	29.1	0	0	---	0.00	30.266 
07:20	30.4	30.4	30.4	94	28.9	0	0	---	0.00	30.266 
07:25	30.4	30.4	30.4	94	28.9	0	0	---	0.00	30.266 
07:30	30.4	30.4	30.4	94	28.9	0	0	---	0.00	30.265 
07:35	30.3	30.3	30.3	94	28.8	0	0	---	0.00	30.265 
07:40	30.3	30.3	30.3	94	28.8	0	0	---	0.00	30.265 
07:45	30.1	30.1	30.1	94	28.6	0	0	---	0.00	30.262 
07:50	30.3	30.3	30.3	94	28.8	0	0	---	0.00	30.262 
07:55	30.3	30.3	30.3	94	28.8	0	0	---	0.00	30.262 
08:00	30.3	30.3	30.3	94	28.8	0	0	---	0.00	30.254 
08:05	30.4	30.4	30.4	94	28.9	0	0	---	0.00	30.254 
08:10	30.4	30.4	30.4	94	28.9	0	0	---	0.00	30.254 
08:15	30.4	30.4	30.4	94	28.9	0	0	---	0.00	30.258 
08:20	30.4	30.4	30.4	94	28.9	0	0	---	0.00	30.258 
08:25	30.4	30.4	30.4	94	28.9	0	0	---	0.00	30.258 
08:30	30.4	30.4	30.4	94	28.9	0	0	---	0.00	30.257 
08:35	30.4	30.4	30.4	94	28.9	0	0	---	0.00	30.257 
08:40	30.6	30.6	30.6	94	29.1	0	0	---	0.00	30.257 
08:45	30.7	30.7	30.7	94	29.2	0	0	---	0.00	30.264 
08:50	30.9	30.9	30.9	94	29.4	0	0	---	0.00	30.264 
08:55	31.0	31.0	31.0	94	29.5	0	0	---	0.00	30.264 
09:00	31.2	31.2	31.2	94	29.7	0	0	---	0.00	30.269 
09:05	31.6	31.6	31.6	95	30.3	0	0	---	0.00	30.269 
09:10	31.9	31.9	31.9	95	30.6	0	0	---	0.00	30.269 
09:15	32.4	32.4	32.4	95	31.1	0	0	---	0.00	30.269 
09:20	32.7	32.7	32.7	95	31.4	0	0	---	0.00	30.269 
09:25	33.1	33.1	33.1	95	31.8	0	0	---	0.00	30.269 
09:30	33.7	33.7	33.7	95	32.4	0	0	---	0.00	30.266 
09:35	34.3	34.3	34.3	95	33.0	0	0	---	0.00	30.266 
09:40	34.9	34.9	34.9	95	33.6	0	0	---	0.00	30.266 
09:45	35.3	35.3	35.3	95	34.0	0	0	---	0.00	30.265 
09:50	35.9	35.9	35.9	96	34.9	0	0	---	0.00	30.265 
09:55	36.5	36.5	36.5	96	35.5	0	0	---	0.00	30.265 
10:00	37.0	37.0	37.0	96	36.0	0	0	---	0.00	30.264 
10:05	37.6	37.6	37.6	96	36.6	0	0	---	0.00	30.264 
10:10	38.5	38.5	38.5	96	37.5	0	0	---	0.00	30.264 
10:15	39.2	39.2	39.2	96	38.2	0	0	---	0.00	30.257 
10:20	39.8	39.8	39.8	96	38.8	0	0	---	0.00	30.257 
10:25	40.5	40.5	40.5	96	39.5	0	0	---	0.00	30.257 
10:30	41.3	41.3	41.3	96	40.2	0	0	---	0.00	30.261 
10:35	42.3	42.3	42.3	96	41.2	0	1	68	0.00	30.261 
10:40	42.9	42.9	42.9	96	41.8	0	1	---	0.00	30.261 
10:45	43.5	43.5	43.5	96	42.4	0	1	68	0.00	30.262 
10:50	43.8	43.8	43.8	96	42.7	0	1	68	0.00	30.262 
10:55	44.5	44.5	44.5	96	43.4	0	1	68	0.00	30.262 
11:00	44.9	44.9	44.9	95	43.6	0	1	68	0.00	30.260 
11:05	45.7	45.7	45.7	95	44.4	0	2	68	0.00	30.260 
11:10	46.0	46.0	46.0	94	44.4	1	3	68	0.00	30.260 
11:15	46.5	46.5	46.5	93	44.6	0	2	270	0.00	30.254 
11:20	47.3	47.3	47.3	90	44.5	1	3	270	0.00	30.254 
11:25	47.9	47.9	47.9	87	44.2	1	3	270	0.00	30.254 
11:30	48.2	48.2	48.2	83	43.3	1	4	270	0.00	30.256 
11:35	48.5	48.5	48.5	79	42.3	1	4	270	0.00	30.256 
11:40	48.8	48.8	48.8	78	42.2	1	3	270	0.00	30.256 
11:45	49.4	49.4	49.4	77	42.5	0	2	270	0.00	30.250 
11:50	49.8	49.8	49.8	75	42.2	1	2	270	0.00	30.250 
11:55	50.4	50.4	50.4	74	42.4	0	3	270	0.00	30.250 
12:00	51.0	51.0	51.0	71	41.9	0	2	270	0.00	30.240 
12:05	51.3	51.3	51.3	69	41.5	0	2	270	0.00	30.240 
12:10	51.6	51.6	51.6	69	41.8	0	2	270	0.00	30.240 
12:15	52.0	52.0	52.0	68	41.8	0	1	270	0.00	30.238 
12:20	52.2	52.2	52.2	67	41.6	0	3	270	0.00	30.238 
12:25	52.5	52.5	52.5	67	41.9	0	2	270	0.00	30.238 
12:30	52.8	52.8	52.8	68	42.5	0	2	270	0.00	30.232 
12:35	53.2	53.2	53.2	66	42.1	0	1	270	0.00	30.232 
12:40	53.5	53.5	53.5	63	41.2	0	1	270	0.00	30.232 
12:45	53.3	53.3	53.3	62	40.6	0	2	270	0.00	30.226 
12:50	53.1	53.1	53.1	63	40.8	1	3	270	0.00	30.226 
12:55	52.8	52.8	52.8	62	40.1	1	3	270	0.00	30.226 
13:00	52.9	52.9	52.9	63	40.7	0	2	270	0.00	30.219 
13:05	53.2	53.2	53.2	63	40.9	0	2	270	0.00	30.219 
13:10	53.6	53.6	53.6	63	41.3	0	2	270	0.00	30.219 
13:15	54.2	54.2	54.2	61	41.0	0	3	270	0.00	30.208 
13:20	54.7	54.7	54.7	62	41.9	0	0	---	0.00	30.208 
13:25	54.8	54.8	54.8	62	42.0	0	1	270	0.00	30.208 
13:30	54.8	54.8	54.8	60	41.2	0	1	270	0.00	30.206 
13:35	54.8	54.8	54.8	61	41.6	0	2	270	0.00	30.206 
13:40	55.0	55.0	55.0	61	41.8	0	2	270	0.00	30.206 
13:45	55.1	55.1	55.1	58	40.6	0	2	270	0.00	30.195 
13:50	55.0	55.0	55.0	59	40.9	0	1	270	0.00	30.195 
13:55	55.0	55.0	55.0	60	41.4	0	3	270	0.00	30.195 
14:00	55.3	55.3	55.3	59	41.2	0	1	270	0.00	30.188 
14:05	55.4	55.4	55.4	58	40.9	0	3	270	0.00	30.188 
14:10	55.7	55.7	55.7	59	41.6	0	0	---	0.00	30.188 
14:15	55.6	55.6	55.6	55	39.7	0	1	270	0.00	30.176 
14:20	55.6	55.6	55.6	56	40.2	0	1	270	0.00	30.176 
14:25	55.7	55.7	55.7	54	39.3	0	1	270	0.00	30.176 
14:30	55.9	55.9	55.9	53	39.0	0	3	270	0.00	30.172 
14:35	56.0	56.0	56.0	52	38.6	0	1	270	0.00	30.172 
14:40	56.2	56.2	56.2	55	40.2	0	0	---	0.00	30.172 
14:45	56.5	56.5	56.5	53	39.6	0	2	270	0.00	30.164 
14:50	56.5	56.5	56.5	52	39.1	0	1	270	0.00	30.164 
14:55	56.7	56.7	56.7	53	39.8	0	1	270	0.00	30.164 
15:00	56.7	56.7	56.7	51	38.8	0	2	270	0.00	30.157 
15:05	56.6	56.6	56.6	52	39.2	0	3	270	0.00	30.157 
15:10	56.6	56.6	56.6	49	37.7	1	4	270	0.00	30.157 
15:15	56.9	56.9	56.9	49	37.9	0	2	270	0.00	30.157 
15:20	57.0	57.0	57.0	48	37.5	0	1	270	0.00	30.157 
15:25	57.2	57.2	57.2	48	37.7	0	3	270	0.00	30.157 
15:30	57.2	57.2	57.2	49	38.2	0	2	270	0.00	30.152 
15:35	57.3	57.3	57.3	50	38.8	0	1	270	0.00	30.152 
15:40	57.5	57.5	57.5	49	38.5	0	1	270	0.00	30.152 
15:45	57.5	57.5	57.5	50	39.0	0	3	292	0.00	30.149 
15:50	57.8	57.8	57.8	48	38.2	0	3	292	0.00	30.149 
15:55	58.0	58.0	58.0	49	38.9	0	2	292	0.00	30.149 
16:00	57.8	57.8	57.8	50	39.3	0	2	292	0.00	30.144 
16:05	58.0	58.0	58.0	47	37.9	0	3	292	0.00	30.144 
16:10	58.0	58.0	58.0	47	37.9	0	1	292	0.00	30.144 
16:15	58.0	58.0	58.0	47	37.9	0	0	---	0.00	30.141 
16:20	57.8	57.8	57.8	48	38.2	0	1	270	0.00	30.141 
16:25	57.8	57.8	57.8	48	38.2	0	1	292	0.00	30.141 
16:30	57.6	57.6	57.6	48	38.1	0	2	292	0.00	30.138 
16:35	57.3	57.3	57.3	47	37.2	0	0	---	0.00	30.138 
16:40	57.2	57.2	57.2	50	38.7	0	0	---	0.00	30.138 
16:45	57.0	57.0	57.0	49	38.0	0	1	270	0.00	30.129 
16:50	57.0	57.0	57.0	50	38.5	0	0	---	0.00	30.129 
16:55	56.9	56.9	56.9	51	39.0	0	2	270	0.00	30.129 
17:00	56.9	56.9	56.9	51	39.0	0	0	---	0.00	30.127 
17:05	56.7	56.7	56.7	51	38.8	0	1	292	0.00	30.127 
17:10	56.6	56.6	56.6	53	39.7	0	0	---	0.00	30.127 
17:15	56.5	56.5	56.5	52	39.1	0	0	---	0.00	30.127 
17:20	56.5	56.5	56.5	52	39.1	0	0	---	0.00	30.127 
17:25	56.3	56.3	56.3	53	39.4	0	0	---	0.00	30.127 
17:30	56.3	56.3	56.3	54	39.9	0	0	---	0.00	30.127 
17:35	56.0	56.0	56.0	54	39.6	0	0	---	0.00	30.127 
17:40	55.9	55.9	55.9	55	40.0	0	0	---	0.00	30.127 
17:45	55.7	55.7	55.7	55	39.8	0	0	---	0.00	30.119 
17:50	55.6	55.6	55.6	55	39.7	0	0	---	0.00	30.119 
17:55	55.4	55.4	55.4	56	40.0	0	0	---	0.00	30.119 
18:00	55.3	55.3	55.3	58	40.8	0	0	---	0.00	30.114 
18:05	55.0	55.0	55.0	58	40.5	0	0	---	0.00	30.114 
18:10	54.8	54.8	54.8	58	40.3	0	0	---	0.00	30.114 
18:15	54.5	54.5	54.5	61	41.3	0	0	---	0.00	30.114 
18:20	54.1	54.1	54.1	62	41.4	0	0	---	0.00	30.114 
18:25	53.6	53.6	53.6	61	40.5	0	0	---	0.00	30.114 
18:30	53.2	53.2	53.2	61	40.1	0	0	---	0.00	30.126 
18:35	52.9	52.9	52.9	63	40.7	0	0	---	0.00	30.126 
18:40	52.6	52.6	52.6	64	40.8	0	0	---	0.00	30.126 
18:45	52.2	52.2	52.2	65	40.8	0	0	---	0.00	30.129 
18:50	51.9	51.9	51.9	66	40.9	0	0	---	0.00	30.129 
18:55	51.6	51.6	51.6	67	41.0	0	0	---	0.00	30.129 
19:00	51.1	51.1	51.1	67	40.5	0	0	---	0.00	30.124 
19:05	50.8	50.8	50.8	68	40.6	0	0	---	0.00	30.124 
19:10	50.4	50.4	50.4	69	40.6	0	0	---	0.00	30.124 
19:15	50.1	50.1	50.1	70	40.7	0	0	---	0.00	30.123 
19:20	49.6	49.6	49.6	73	41.3	0	0	---	0.00	30.123 
19:25	49.2	49.2	49.2	74	41.3	0	0	---	0.00	30.123 
19:30	48.9	48.9	48.9	75	41.3	0	0	---	0.00	30.122 
19:35	48.8	48.8	48.8	75	41.2	0	0	---	0.00	30.122 
19:40	48.6	48.6	48.6	77	41.7	0	0	---	0.00	30.122 
19:45	48.5	48.5	48.5	77	41.6	0	0	---	0.00	30.120 
19:50	48.3	48.3	48.3	77	41.4	0	0	---	0.00	30.120 
19:55	48.0	48.0	48.0	78	41.5	0	0	---	0.00	30.120 
20:00	47.9	47.9	47.9	78	41.4	0	0	---	0.00	30.122 
20:05	47.6	47.6	47.6	78	41.1	0	0	---	0.00	30.122 
20:10	47.4	47.4	47.4	78	40.9	0	0	---	0.00	30.122 
20:15	47.1	47.1	47.1	79	40.9	0	0	---	0.00	30.120 
20:20	47.0	47.0	47.0	79	40.8	0	0	---	0.00	30.120 
20:25	46.8	46.8	46.8	81	41.3	0	0	---	0.00	30.120 
20:30	46.5	46.5	46.5	81	41.0	0	0	---	0.00	30.114 
20:35	46.4	46.4	46.4	81	40.9	0	0	---	0.00	30.114 
20:40	46.4	46.4	46.4	82	41.2	0	0	---	0.00	30.114 
20:45	46.2	46.2	46.2	82	41.0	0	0	---	0.00	30.116 
20:50	46.1	46.1	46.1	83	41.2	0	0	---	0.00	30.116 
20:55	46.0	46.0	46.0	83	41.1	0	0	---	0.00	30.116 
21:00	46.0	46.0	46.0	83	41.1	0	0	---	0.00	30.115 
21:05	46.0	46.0	46.0	83	41.1	0	0	---	0.00	30.115 
21:10	46.0	46.0	46.0	83	41.1	0	0	---	0.00	30.115 
21:15	45.8	45.8	45.8	84	41.2	0	0	---	0.00	30.113 
21:20	45.5	45.5	45.5	84	41.0	0	0	---	0.00	30.113 
21:25	45.4	45.4	45.4	84	40.9	0	0	---	0.00	30.113 
21:30	45.2	45.2	45.2	84	40.7	0	0	---	0.00	30.112 
21:35	45.1	45.1	45.1	85	40.9	0	0	---	0.00	30.112 
21:40	44.9	44.9	44.9	85	40.7	0	0	---	0.00	30.112 
21:45	44.8	44.8	44.8	85	40.6	0	0	---	0.00	30.114 
21:50	44.6	44.6	44.6	85	40.4	0	0	---	0.00	30.114 
21:55	44.5	44.5	44.5	85	40.3	0	0	---	0.00	30.114 
22:00	44.3	44.3	44.3	85	40.1	0	0	---	0.00	30.113 
22:05	44.1	44.1	44.1	85	39.9	0	0	---	0.00	30.113 
22:10	43.6	43.6	43.6	86	39.7	0	0	---	0.00	30.113 
22:15	43.5	43.5	43.5	86	39.6	0	0	---	0.00	30.104 
22:20	43.2	43.2	43.2	86	39.3	0	0	---	0.00	30.104 
22:25	43.1	43.1	43.1	86	39.2	0	0	---	0.00	30.104 
22:30	42.8	42.8	42.8	87	39.2	0	0	---	0.00	30.102 
22:35	42.6	42.6	42.6	87	39.0	0	0	---	0.00	30.102 
22:40	42.3	42.3	42.3	87	38.7	0	0	---	0.00	30.102 
22:45	42.2	42.2	42.2	87	38.6	0	0	---	0.00	30.101 
22:50	41.9	41.9	41.9	88	38.6	0	0	---	0.00	30.101 
22:55	41.8	41.8	41.8	88	38.5	0	0	---	0.00	30.101 
23:00	41.6	41.6	41.6	88	38.3	0	0	---	0.00	30.100 
23:05	41.5	41.5	41.5	88	38.2	0	0	---	0.00	30.100 
23:10	41.3	41.3	41.3	88	38.0	0	0	---	0.00	30.100 
23:15	41.2	41.2	41.2	88	37.9	0	0	---	0.00	30.098 
23:20	41.1	41.1	41.1	89	38.1	0	0	---	0.00	30.098 
23:25	40.9	40.9	40.9	89	37.9	0	0	---	0.00	30.098 
23:30	40.8	40.8	40.8	89	37.8	0	0	---	0.00	30.100 
23:35	40.6	40.6	40.6	89	37.6	0	0	---	0.00	30.100 
23:40	40.6	40.6	40.6	89	37.6	0	0	---	0.00	30.100 
23:45	40.5	40.5	40.5	89	37.5	0	0	---	0.00	30.098 
23:50	40.3	40.3	40.3	90	37.6	0	0	---	0.00	30.098 
23:55	40.2	40.2	40.2	90	37.5	0	0	---	0.00	30.098 

CoCoRaHS
IN-AL-39
A2 Web Hosting
Creative Commons License
GoDaddy
search engine by freefind advanced

loaded 2018-11-14 03:45:56 • last modified 2010-11-18 10:43:29
Privacy PolicyDisclaimer
• wx.awcolley.com is powered by PmWiki v.2002016 •
• all content (unless otherwise noted) © 2018 A W Colley